sensor_id;sensor_type;location;lat;lon;timestamp;pressure;altitude;pressure_sealevel;temperature;humidity
45523;BME280;31254;51.680;5.394;2022-08-07T00:00:22;102718.25;;;15.31;64.16
45523;BME280;31254;51.680;5.394;2022-08-07T00:02:49;102698.03;;;15.21;64.69
45523;BME280;31254;51.680;5.394;2022-08-07T00:05:19;102722.56;;;15.33;64.62
45523;BME280;31254;51.680;5.394;2022-08-07T00:07:49;102717.63;;;15.27;64.52
45523;BME280;31254;51.680;5.394;2022-08-07T00:10:25;102711.13;;;15.28;64.85
45523;BME280;31254;51.680;5.394;2022-08-07T00:13:00;102709.50;;;15.26;65.01
45523;BME280;31254;51.680;5.394;2022-08-07T00:15:50;102715.28;;;15.23;64.97
45523;BME280;31254;51.680;5.394;2022-08-07T00:18:20;102704.56;;;15.20;65.36
45523;BME280;31254;51.680;5.394;2022-08-07T00:21:00;102709.44;;;15.16;65.38
45523;BME280;31254;51.680;5.394;2022-08-07T00:23:34;102704.38;;;15.11;65.64
45523;BME280;31254;51.680;5.394;2022-08-07T00:26:06;102700.00;;;15.09;65.77
45523;BME280;31254;51.680;5.394;2022-08-07T00:28:44;102694.03;;;15.04;65.76
45523;BME280;31254;51.680;5.394;2022-08-07T00:31:22;102695.94;;;15.03;66.04
45523;BME280;31254;51.680;5.394;2022-08-07T00:34:06;102692.28;;;15.03;66.17
45523;BME280;31254;51.680;5.394;2022-08-07T00:36:34;102692.44;;;15.01;66.23
45523;BME280;31254;51.680;5.394;2022-08-07T00:39:08;102683.44;;;14.99;66.08
45523;BME280;31254;51.680;5.394;2022-08-07T00:41:50;102686.34;;;14.97;66.53
45523;BME280;31254;51.680;5.394;2022-08-07T00:44:26;102689.22;;;14.96;66.48
45523;BME280;31254;51.680;5.394;2022-08-07T00:46:53;102668.16;;;14.85;66.77
45523;BME280;31254;51.680;5.394;2022-08-07T00:49:21;102683.97;;;14.93;66.88
45523;BME280;31254;51.680;5.394;2022-08-07T00:52:08;102685.88;;;14.92;67.08
45523;BME280;31254;51.680;5.394;2022-08-07T00:54:35;102656.25;;;14.75;67.09
45523;BME280;31254;51.680;5.394;2022-08-07T00:57:06;102685.53;;;14.86;67.26
45523;BME280;31254;51.680;5.394;2022-08-07T00:59:35;102687.41;;;14.85;67.20
45523;BME280;31254;51.680;5.394;2022-08-07T01:02:06;102682.19;;;14.82;67.43
45523;BME280;31254;51.680;5.394;2022-08-07T01:04:56;102679.09;;;14.75;67.33
45523;BME280;31254;51.680;5.394;2022-08-07T01:07:27;102683.72;;;14.75;67.86
45523;BME280;31254;51.680;5.394;2022-08-07T01:09:55;102678.34;;;14.73;67.84
45523;BME280;31254;51.680;5.394;2022-08-07T01:12:36;102678.47;;;14.72;67.88
45523;BME280;31254;51.680;5.394;2022-08-07T01:15:04;102665.00;;;14.69;67.80
45523;BME280;31254;51.680;5.394;2022-08-07T01:17:41;102662.41;;;14.67;68.20
45523;BME280;31254;51.680;5.394;2022-08-07T01:20:11;102660.81;;;14.65;68.24
45523;BME280;31254;51.680;5.394;2022-08-07T01:22:43;102661.19;;;14.60;68.64
45523;BME280;31254;51.680;5.394;2022-08-07T01:25:19;102665.84;;;14.59;68.54
45523;BME280;31254;51.680;5.394;2022-08-07T01:28:06;102654.31;;;14.54;68.68
45523;BME280;31254;51.680;5.394;2022-08-07T01:30:37;102657.94;;;14.55;68.67
45523;BME280;31254;51.680;5.394;2022-08-07T01:33:04;102648.47;;;14.48;68.72
45523;BME280;31254;51.680;5.394;2022-08-07T01:35:31;102653.72;;;14.51;69.21
45523;BME280;31254;51.680;5.394;2022-08-07T01:38:18;102656.72;;;14.48;68.91
45523;BME280;31254;51.680;5.394;2022-08-07T01:40:58;102623.34;;;14.31;69.22
45523;BME280;31254;51.680;5.394;2022-08-07T01:43:28;102652.50;;;14.43;69.31
45523;BME280;31254;51.680;5.394;2022-08-07T01:46:06;102655.13;;;14.45;69.59
45523;BME280;31254;51.680;5.394;2022-08-07T01:48:39;102639.16;;;14.39;69.46
45523;BME280;31254;51.680;5.394;2022-08-07T01:51:17;102635.06;;;14.33;69.53
45523;BME280;31254;51.680;5.394;2022-08-07T01:54:09;102646.56;;;14.38;69.39
45523;BME280;31254;51.680;5.394;2022-08-07T01:57:04;102636.81;;;14.34;69.66
45523;BME280;31254;51.680;5.394;2022-08-07T02:02:16;102651.78;;;14.30;69.78
45523;BME280;31254;51.680;5.394;2022-08-07T02:05:13;102648.44;;;14.26;69.87
45523;BME280;31254;51.680;5.394;2022-08-07T02:08:06;102645.09;;;14.23;69.90
45523;BME280;31254;51.680;5.394;2022-08-07T02:10:35;102607.00;;;13.97;70.07
45523;BME280;31254;51.680;5.394;2022-08-07T02:13:08;102644.75;;;14.16;70.13
45523;BME280;31254;51.680;5.394;2022-08-07T02:15:38;102623.31;;;14.10;70.38
45523;BME280;31254;51.680;5.394;2022-08-07T02:18:09;102637.03;;;14.10;70.39
45523;BME280;31254;51.680;5.394;2022-08-07T02:20:39;102639.16;;;14.06;70.32
45523;BME280;31254;51.680;5.394;2022-08-07T02:23:15;102629.56;;;14.01;70.57
45523;BME280;31254;51.680;5.394;2022-08-07T02:25:49;102635.94;;;14.01;70.88
45523;BME280;31254;51.680;5.394;2022-08-07T02:28:39;102635.06;;;14.01;70.89
45523;BME280;31254;51.680;5.394;2022-08-07T02:31:07;102641.56;;;14.00;70.97
45523;BME280;31254;51.680;5.394;2022-08-07T02:33:55;102640.78;;;13.98;71.05
45523;BME280;31254;51.680;5.394;2022-08-07T02:36:30;102644.56;;;13.97;71.09
45523;BME280;31254;51.680;5.394;2022-08-07T02:39:02;102632.09;;;13.93;71.23
45523;BME280;31254;51.680;5.394;2022-08-07T02:41:45;102602.59;;;13.74;71.17
45523;BME280;31254;51.680;5.394;2022-08-07T02:44:22;102633.09;;;13.92;71.78
45523;BME280;31254;51.680;5.394;2022-08-07T02:47:02;102627.88;;;13.88;71.54
45523;BME280;31254;51.680;5.394;2022-08-07T02:49:31;102602.44;;;13.75;71.46
45523;BME280;31254;51.680;5.394;2022-08-07T02:52:22;102618.00;;;13.86;71.67
45523;BME280;31254;51.680;5.394;2022-08-07T02:55:00;102587.63;;;13.66;71.75
45523;BME280;31254;51.680;5.394;2022-08-07T02:57:30;102619.41;;;13.80;71.74
45523;BME280;31254;51.680;5.394;2022-08-07T03:00:04;102625.50;;;13.84;71.91
45523;BME280;31254;51.680;5.394;2022-08-07T03:02:39;102622.91;;;13.82;71.89
45523;BME280;31254;51.680;5.394;2022-08-07T03:05:20;102620.53;;;13.78;71.97
45523;BME280;31254;51.680;5.394;2022-08-07T03:07:50;102634.38;;;13.76;72.14
45523;BME280;31254;51.680;5.394;2022-08-07T03:10:35;102620.16;;;13.71;71.96
45523;BME280;31254;51.680;5.394;2022-08-07T03:13:13;102614.19;;;13.66;71.99
45523;BME280;31254;51.680;5.394;2022-08-07T03:15:47;102624.94;;;13.69;72.15
45523;BME280;31254;51.680;5.394;2022-08-07T03:18:22;102622.31;;;13.67;72.14
45523;BME280;31254;51.680;5.394;2022-08-07T03:21:01;102614.72;;;13.60;72.25
45523;BME280;31254;51.680;5.394;2022-08-07T03:23:29;102629.75;;;13.65;72.35
45523;BME280;31254;51.680;5.394;2022-08-07T03:26:00;102624.44;;;13.64;72.51
45523;BME280;31254;51.680;5.394;2022-08-07T03:28:41;102621.94;;;13.61;72.57
45523;BME280;31254;51.680;5.394;2022-08-07T03:31:09;102622.94;;;13.60;72.74
45523;BME280;31254;51.680;5.394;2022-08-07T03:34:00;102611.59;;;13.53;72.80
45523;BME280;31254;51.680;5.394;2022-08-07T03:36:30;102616.97;;;13.55;72.69
45523;BME280;31254;51.680;5.394;2022-08-07T03:39:01;102620.94;;;13.50;73.04
45523;BME280;31254;51.680;5.394;2022-08-07T03:41:31;102606.00;;;13.43;73.11
45523;BME280;31254;51.680;5.394;2022-08-07T03:44:12;102617.47;;;13.48;73.21
45523;BME280;31254;51.680;5.394;2022-08-07T03:46:41;102627.69;;;13.46;73.70
45523;BME280;31254;51.680;5.394;2022-08-07T03:49:28;102618.31;;;13.49;73.64
45523;BME280;31254;51.680;5.394;2022-08-07T03:51:57;102589.66;;;13.30;73.57
45523;BME280;31254;51.680;5.394;2022-08-07T03:54:27;102626.91;;;13.44;73.83
45523;BME280;31254;51.680;5.394;2022-08-07T03:57:10;102632.16;;;13.47;73.72
45523;BME280;31254;51.680;5.394;2022-08-07T03:59:58;102634.16;;;13.45;73.50
45523;BME280;31254;51.680;5.394;2022-08-07T04:02:29;102633.41;;;13.43;73.54
45523;BME280;31254;51.680;5.394;2022-08-07T04:04:59;102630.69;;;13.43;73.89
45523;BME280;31254;51.680;5.394;2022-08-07T04:07:26;102635.44;;;13.41;73.76
45523;BME280;31254;51.680;5.394;2022-08-07T04:10:08;102624.44;;;13.30;73.84
45523;BME280;31254;51.680;5.394;2022-08-07T04:12:45;102631.91;;;13.39;73.61
45523;BME280;31254;51.680;5.394;2022-08-07T04:15:18;102638.16;;;13.41;73.98
45523;BME280;31254;51.680;5.394;2022-08-07T04:17:49;102634.53;;;13.41;73.76
45523;BME280;31254;51.680;5.394;2022-08-07T04:20:36;102649.00;;;13.43;73.72
45523;BME280;31254;51.680;5.394;2022-08-07T04:23:08;102631.28;;;13.35;73.96
45523;BME280;31254;51.680;5.394;2022-08-07T04:25:44;102648.59;;;13.47;73.81
45523;BME280;31254;51.680;5.394;2022-08-07T04:28:14;102631.66;;;13.42;74.19
45523;BME280;31254;51.680;5.394;2022-08-07T04:30:48;102642.75;;;13.52;73.87
45523;BME280;31254;51.680;5.394;2022-08-07T04:33:23;102642.13;;;13.48;73.83
45523;BME280;31254;51.680;5.394;2022-08-07T04:35:50;102642.50;;;13.55;73.80
45523;BME280;31254;51.680;5.394;2022-08-07T04:38:23;102640.63;;;13.56;73.83
45523;BME280;31254;51.680;5.394;2022-08-07T04:40:51;102643.00;;;13.60;73.76
45523;BME280;31254;51.680;5.394;2022-08-07T04:43:27;102649.84;;;13.66;73.74
45523;BME280;31254;51.680;5.394;2022-08-07T04:46:22;102662.53;;;13.67;73.61
45523;BME280;31254;51.680;5.394;2022-08-07T04:49:15;102651.09;;;13.62;73.39
45523;BME280;31254;51.680;5.394;2022-08-07T04:58:19;102660.31;;;13.83;72.85
45523;BME280;31254;51.680;5.394;2022-08-07T05:01:16;102667.59;;;14.05;72.31
45523;BME280;31254;51.680;5.394;2022-08-07T05:04:02;102652.81;;;14.61;70.70
45523;BME280;31254;51.680;5.394;2022-08-07T05:06:45;102656.72;;;16.13;66.49
45523;BME280;31254;51.680;5.394;2022-08-07T05:09:26;102648.03;;;17.99;61.29
45523;BME280;31254;51.680;5.394;2022-08-07T05:12:14;102631.38;;;19.33;57.59
45523;BME280;31254;51.680;5.394;2022-08-07T05:14:58;102648.00;;;20.35;55.00
45523;BME280;31254;51.680;5.394;2022-08-07T05:17:32;102639.00;;;20.98;53.51
45523;BME280;31254;51.680;5.394;2022-08-07T05:20:23;102656.00;;;21.68;52.18
45523;BME280;31254;51.680;5.394;2022-08-07T05:22:57;102646.22;;;22.12;50.78
45523;BME280;31254;51.680;5.394;2022-08-07T05:25:27;102636.28;;;22.49;49.75
45523;BME280;31254;51.680;5.394;2022-08-07T05:28:15;102650.38;;;23.00;48.88
45523;BME280;31254;51.680;5.394;2022-08-07T05:30:50;102642.78;;;23.47;47.44
45523;BME280;31254;51.680;5.394;2022-08-07T05:33:18;102639.97;;;23.77;46.65
45523;BME280;31254;51.680;5.394;2022-08-07T05:35:48;102652.03;;;23.99;46.24
45523;BME280;31254;51.680;5.394;2022-08-07T05:38:16;102644.91;;;24.11;45.78
45523;BME280;31254;51.680;5.394;2022-08-07T05:41:06;102647.22;;;24.07;45.71
45523;BME280;31254;51.680;5.394;2022-08-07T05:43:45;102653.63;;;24.44;45.03
45523;BME280;31254;51.680;5.394;2022-08-07T05:46:34;102653.09;;;24.34;44.78
45523;BME280;31254;51.680;5.394;2022-08-07T05:49:04;102653.41;;;24.61;44.64
45523;BME280;31254;51.680;5.394;2022-08-07T05:51:40;102648.75;;;24.96;43.48
45523;BME280;31254;51.680;5.394;2022-08-07T05:54:08;102638.34;;;25.12;42.90
45523;BME280;31254;51.680;5.394;2022-08-07T05:56:55;102637.47;;;25.40;42.16
45523;BME280;31254;51.680;5.394;2022-08-07T05:59:24;102638.69;;;25.72;41.94
45523;BME280;31254;51.680;5.394;2022-08-07T06:02:05;102630.31;;;26.27;40.73
45523;BME280;31254;51.680;5.394;2022-08-07T06:04:36;102637.19;;;26.24;40.80
45523;BME280;31254;51.680;5.394;2022-08-07T06:07:05;102646.00;;;26.15;40.72
45523;BME280;31254;51.680;5.394;2022-08-07T06:09:33;102647.75;;;26.29;40.57
45523;BME280;31254;51.680;5.394;2022-08-07T06:12:22;102662.88;;;26.61;39.91
45523;BME280;31254;51.680;5.394;2022-08-07T06:14:58;102659.59;;;26.58;39.28
45523;BME280;31254;51.680;5.394;2022-08-07T06:17:31;102667.59;;;27.28;38.40
45523;BME280;31254;51.680;5.394;2022-08-07T06:20:04;102667.69;;;27.80;37.90
45523;BME280;31254;51.680;5.394;2022-08-07T06:22:39;102624.56;;;28.58;36.28
45523;BME280;31254;51.680;5.394;2022-08-07T06:25:27;102665.63;;;29.46;35.10
45523;BME280;31254;51.680;5.394;2022-08-07T06:28:08;102662.59;;;29.48;35.26
45523;BME280;31254;51.680;5.394;2022-08-07T06:30:40;102667.09;;;28.87;35.83
45523;BME280;31254;51.680;5.394;2022-08-07T06:33:11;102662.94;;;28.64;35.91
45523;BME280;31254;51.680;5.394;2022-08-07T06:35:42;102653.28;;;28.85;35.48
45523;BME280;31254;51.680;5.394;2022-08-07T06:38:31;102652.63;;;29.52;34.85
45523;BME280;31254;51.680;5.394;2022-08-07T06:41:01;102643.03;;;29.78;34.13
45523;BME280;31254;51.680;5.394;2022-08-07T06:43:36;102638.69;;;29.94;33.95
45523;BME280;31254;51.680;5.394;2022-08-07T06:46:12;102638.06;;;30.22;33.27
45523;BME280;31254;51.680;5.394;2022-08-07T06:48:40;102634.28;;;30.29;33.38
45523;BME280;31254;51.680;5.394;2022-08-07T06:51:14;102636.03;;;30.72;32.92
45523;BME280;31254;51.680;5.394;2022-08-07T06:54:00;102632.38;;;30.83;32.53
45523;BME280;31254;51.680;5.394;2022-08-07T06:56:49;102638.19;;;30.58;32.79
45523;BME280;31254;51.680;5.394;2022-08-07T06:59:22;102627.28;;;30.19;33.05
45523;BME280;31254;51.680;5.394;2022-08-07T07:02:19;102628.59;;;30.05;33.68
45523;BME280;31254;51.680;5.394;2022-08-07T07:05:07;102630.09;;;30.19;32.82
45523;BME280;31254;51.680;5.394;2022-08-07T07:07:38;102614.81;;;30.46;32.62
45523;BME280;31254;51.680;5.394;2022-08-07T07:10:30;102629.41;;;30.90;31.95
45523;BME280;31254;51.680;5.394;2022-08-07T07:13:21;102631.03;;;31.09;32.22
45523;BME280;31254;51.680;5.394;2022-08-07T07:16:16;102636.88;;;30.84;31.62
45523;BME280;31254;51.680;5.394;2022-08-07T07:18:49;102632.84;;;31.51;30.68
45523;BME280;31254;51.680;5.394;2022-08-07T07:21:29;102630.72;;;32.11;30.65
45523;BME280;31254;51.680;5.394;2022-08-07T07:24:18;102626.66;;;32.06;29.66
45523;BME280;31254;51.680;5.394;2022-08-07T07:26:46;102619.81;;;31.50;30.61
45523;BME280;31254;51.680;5.394;2022-08-07T07:29:23;102611.66;;;30.89;31.46
45523;BME280;31254;51.680;5.394;2022-08-07T07:32:12;102627.09;;;32.27;30.23
45523;BME280;31254;51.680;5.394;2022-08-07T07:34:44;102630.78;;;32.61;29.57
45523;BME280;31254;51.680;5.394;2022-08-07T07:37:14;102627.81;;;32.68;28.96
45523;BME280;31254;51.680;5.394;2022-08-07T07:40:05;102614.06;;;31.68;30.45
45523;BME280;31254;51.680;5.394;2022-08-07T07:42:42;102621.47;;;30.75;31.40
45523;BME280;31254;51.680;5.394;2022-08-07T07:45:18;102624.94;;;31.77;29.50
45523;BME280;31254;51.680;5.394;2022-08-07T07:48:09;102628.31;;;31.38;29.93
45523;BME280;31254;51.680;5.394;2022-08-07T07:50:59;102627.50;;;31.14;29.85
45523;BME280;31254;51.680;5.394;2022-08-07T07:53:28;102624.13;;;31.64;29.27
45523;BME280;31254;51.680;5.394;2022-08-07T07:56:00;102631.03;;;32.60;28.14
45523;BME280;31254;51.680;5.394;2022-08-07T07:58:32;102618.91;;;31.85;28.82
45523;BME280;31254;51.680;5.394;2022-08-07T08:01:10;102624.69;;;32.36;28.95
45523;BME280;31254;51.680;5.394;2022-08-07T08:04:00;102618.00;;;31.96;28.79
45523;BME280;31254;51.680;5.394;2022-08-07T08:06:41;102627.66;;;32.12;28.76
45523;BME280;31254;51.680;5.394;2022-08-07T08:09:19;102622.56;;;31.85;29.24
45523;BME280;31254;51.680;5.394;2022-08-07T08:11:50;102597.00;;;31.63;28.94
45523;BME280;31254;51.680;5.394;2022-08-07T08:14:33;102626.13;;;31.28;29.48
45523;BME280;31254;51.680;5.394;2022-08-07T08:17:03;102628.31;;;30.79;29.76
45523;BME280;31254;51.680;5.394;2022-08-07T08:19:59;102626.25;;;30.86;29.78
45523;BME280;31254;51.680;5.394;2022-08-07T08:22:47;102619.03;;;31.14;29.45
45523;BME280;31254;51.680;5.394;2022-08-07T08:25:40;102622.53;;;30.86;29.27
45523;BME280;31254;51.680;5.394;2022-08-07T08:28:35;102626.13;;;31.05;29.29
45523;BME280;31254;51.680;5.394;2022-08-07T08:31:11;102622.19;;;31.29;28.91
45523;BME280;31254;51.680;5.394;2022-08-07T08:33:50;102617.56;;;31.23;29.02
45523;BME280;31254;51.680;5.394;2022-08-07T08:36:26;102625.22;;;30.57;28.85
45523;BME280;31254;51.680;5.394;2022-08-07T08:38:55;102619.94;;;30.06;29.72
45523;BME280;31254;51.680;5.394;2022-08-07T08:41:45;102630.09;;;30.38;29.65
45523;BME280;31254;51.680;5.394;2022-08-07T08:47:28;102618.78;;;31.27;28.83
45523;BME280;31254;51.680;5.394;2022-08-07T08:50:31;102613.72;;;31.41;28.45
45523;BME280;31254;51.680;5.394;2022-08-07T08:53:13;102611.78;;;30.94;28.91
45523;BME280;31254;51.680;5.394;2022-08-07T08:55:57;102615.56;;;30.88;29.15
45523;BME280;31254;51.680;5.394;2022-08-07T09:04:31;102613.03;;;31.10;28.83
45523;BME280;31254;51.680;5.394;2022-08-07T09:30:36;102602.81;;;28.97;31.12
45523;BME280;31254;51.680;5.394;2022-08-07T09:36:21;102601.00;;;30.25;29.77
45523;BME280;31254;51.680;5.394;2022-08-07T09:39:11;102603.19;;;29.44;31.12
45523;BME280;31254;51.680;5.394;2022-08-07T09:42:08;102586.88;;;29.34;31.08
45523;BME280;31254;51.680;5.394;2022-08-07T09:44:55;102597.03;;;28.92;31.57
45523;BME280;31254;51.680;5.394;2022-08-07T09:50:45;102594.59;;;28.77;31.44
45523;BME280;31254;51.680;5.394;2022-08-07T09:53:19;102589.91;;;28.71;31.48
45523;BME280;31254;51.680;5.394;2022-08-07T09:56:13;102578.56;;;28.27;32.08
45523;BME280;31254;51.680;5.394;2022-08-07T10:01:47;102573.72;;;26.12;34.67
45523;BME280;31254;51.680;5.394;2022-08-07T10:07:30;102580.88;;;26.74;34.33
45523;BME280;31254;51.680;5.394;2022-08-07T10:10:34;102563.84;;;26.89;33.66
45523;BME280;31254;51.680;5.394;2022-08-07T10:16:33;102560.34;;;28.11;33.02
45523;BME280;31254;51.680;5.394;2022-08-07T10:25:18;102559.28;;;28.37;32.45
45523;BME280;31254;51.680;5.394;2022-08-07T10:30:48;102553.56;;;28.25;32.55
45523;BME280;31254;51.680;5.394;2022-08-07T10:36:27;102545.28;;;27.67;32.94
45523;BME280;31254;51.680;5.394;2022-08-07T10:39:49;102548.09;;;27.67;32.80
45523;BME280;31254;51.680;5.394;2022-08-07T10:42:41;102554.34;;;27.62;32.60
45523;BME280;31254;51.680;5.394;2022-08-07T10:45:25;102539.03;;;27.06;32.96
45523;BME280;31254;51.680;5.394;2022-08-07T10:48:42;102551.78;;;26.95;32.46
45523;BME280;31254;51.680;5.394;2022-08-07T10:51:21;102539.09;;;26.86;32.36
45523;BME280;31254;51.680;5.394;2022-08-07T10:54:28;102546.41;;;26.74;32.97
45523;BME280;31254;51.680;5.394;2022-08-07T11:11:09;102523.38;;;26.38;33.53
45523;BME280;31254;51.680;5.394;2022-08-07T11:13:48;102522.28;;;26.53;33.26
45523;BME280;31254;51.680;5.394;2022-08-07T11:16:53;102516.28;;;26.42;33.54
45523;BME280;31254;51.680;5.394;2022-08-07T11:22:35;102502.44;;;26.94;32.72
45523;BME280;31254;51.680;5.394;2022-08-07T11:25:35;102507.28;;;27.26;32.86
45523;BME280;31254;51.680;5.394;2022-08-07T11:28:19;102504.81;;;27.56;31.83
45523;BME280;31254;51.680;5.394;2022-08-07T11:33:26;102496.63;;;27.86;31.94
45523;BME280;31254;51.680;5.394;2022-08-07T11:36:35;102498.03;;;27.70;31.96
45523;BME280;31254;51.680;5.394;2022-08-07T11:53:18;102474.09;;;28.94;30.22
45523;BME280;31254;51.680;5.394;2022-08-07T11:56:25;102474.31;;;28.92;30.06
45523;BME280;31254;51.680;5.394;2022-08-07T12:05:25;102470.38;;;28.13;30.74
45523;BME280;31254;51.680;5.394;2022-08-07T12:08:21;102474.25;;;28.12;30.23
45523;BME280;31254;51.680;5.394;2022-08-07T12:11:14;102473.56;;;28.16;30.58
45523;BME280;31254;51.680;5.394;2022-08-07T12:14:00;102467.38;;;28.58;30.00
45523;BME280;31254;51.680;5.394;2022-08-07T12:16:40;102460.91;;;28.76;29.28
45523;BME280;31254;51.680;5.394;2022-08-07T12:22:11;102468.25;;;28.77;29.94
45523;BME280;31254;51.680;5.394;2022-08-07T12:29:15;102452.31;;;29.08;29.35
45523;BME280;31254;51.680;5.394;2022-08-07T12:32:18;102454.91;;;28.91;28.78
45523;BME280;31254;51.680;5.394;2022-08-07T12:34:48;102457.31;;;28.69;29.23
45523;BME280;31254;51.680;5.394;2022-08-07T12:37:23;102455.22;;;28.64;29.76
45523;BME280;31254;51.680;5.394;2022-08-07T12:40:11;102463.34;;;28.72;28.94
45523;BME280;31254;51.680;5.394;2022-08-07T12:43:02;102448.25;;;28.23;29.10
45523;BME280;31254;51.680;5.394;2022-08-07T12:45:50;102451.56;;;27.88;29.47
45523;BME280;31254;51.680;5.394;2022-08-07T12:48:33;102453.63;;;27.67;29.55
45523;BME280;31254;51.680;5.394;2022-08-07T12:51:25;102433.47;;;27.84;29.34
45523;BME280;31254;51.680;5.394;2022-08-07T12:54:25;102450.28;;;28.16;28.38
45523;BME280;31254;51.680;5.394;2022-08-07T12:57:05;102433.16;;;27.92;28.78
45523;BME280;31254;51.680;5.394;2022-08-07T12:59:36;102439.50;;;28.13;28.59
45523;BME280;31254;51.680;5.394;2022-08-07T13:02:35;102397.28;;;27.76;28.28
45523;BME280;31254;51.680;5.394;2022-08-07T13:08:16;102434.97;;;27.86;28.29
45523;BME280;31254;51.680;5.394;2022-08-07T13:13:46;102425.16;;;28.02;28.17
45523;BME280;31254;51.680;5.394;2022-08-07T13:16:57;102424.81;;;27.85;28.82
45523;BME280;31254;51.680;5.394;2022-08-07T13:19:26;102429.25;;;27.68;28.49
45523;BME280;31254;51.680;5.394;2022-08-07T13:22:25;102427.06;;;27.77;28.73
45523;BME280;31254;51.680;5.394;2022-08-07T13:25:03;102424.97;;;27.65;29.03
45523;BME280;31254;51.680;5.394;2022-08-07T13:27:37;102430.03;;;27.50;29.27
45523;BME280;31254;51.680;5.394;2022-08-07T13:30:26;102424.84;;;27.15;29.37
45523;BME280;31254;51.680;5.394;2022-08-07T13:33:25;102419.72;;;27.05;29.88
45523;BME280;31254;51.680;5.394;2022-08-07T13:36:24;102425.09;;;27.00;29.63
45523;BME280;31254;51.680;5.394;2022-08-07T13:39:20;102406.88;;;26.84;29.37
45523;BME280;31254;51.680;5.394;2022-08-07T13:42:13;102402.53;;;26.88;30.09
45523;BME280;31254;51.680;5.394;2022-08-07T13:44:51;102370.28;;;26.79;30.23
45523;BME280;31254;51.680;5.394;2022-08-07T13:47:41;102408.88;;;27.15;30.16
45523;BME280;31254;51.680;5.394;2022-08-07T13:50:28;102416.16;;;27.30;29.80
45523;BME280;31254;51.680;5.394;2022-08-07T13:53:18;102408.00;;;27.22;29.95
45523;BME280;31254;51.680;5.394;2022-08-07T13:55:50;102408.78;;;26.90;30.15
45523;BME280;31254;51.680;5.394;2022-08-07T13:58:23;102415.97;;;26.73;30.39
45523;BME280;31254;51.680;5.394;2022-08-07T14:01:23;102410.78;;;26.76;30.45
45523;BME280;31254;51.680;5.394;2022-08-07T14:03:52;102401.28;;;26.84;30.86
45523;BME280;31254;51.680;5.394;2022-08-07T14:06:35;102410.03;;;27.01;30.12
45523;BME280;31254;51.680;5.394;2022-08-07T14:09:09;102409.22;;;26.87;30.37
45523;BME280;31254;51.680;5.394;2022-08-07T14:12:04;102404.31;;;26.76;30.25
45523;BME280;31254;51.680;5.394;2022-08-07T14:14:41;102406.06;;;26.70;30.80
45523;BME280;31254;51.680;5.394;2022-08-07T14:17:11;102376.16;;;26.64;30.63
45523;BME280;31254;51.680;5.394;2022-08-07T14:20:08;102389.69;;;26.74;30.44
45523;BME280;31254;51.680;5.394;2022-08-07T14:23:06;102395.69;;;26.77;30.71
45523;BME280;31254;51.680;5.394;2022-08-07T14:25:36;102393.56;;;26.73;30.45
45523;BME280;31254;51.680;5.394;2022-08-07T14:28:15;102397.47;;;26.58;29.52
45523;BME280;31254;51.680;5.394;2022-08-07T14:30:46;102389.31;;;26.37;29.85
45523;BME280;31254;51.680;5.394;2022-08-07T14:33:18;102376.03;;;26.19;30.22
45523;BME280;31254;51.680;5.394;2022-08-07T14:35:54;102393.03;;;26.11;30.51
45523;BME280;31254;51.680;5.394;2022-08-07T14:38:26;102385.72;;;26.03;30.10
45523;BME280;31254;51.680;5.394;2022-08-07T14:41:26;102387.47;;;25.97;30.63
45523;BME280;31254;51.680;5.394;2022-08-07T14:44:15;102382.72;;;25.98;30.86
45523;BME280;31254;51.680;5.394;2022-08-07T14:46:43;102379.25;;;26.16;30.78
45523;BME280;31254;51.680;5.394;2022-08-07T14:49:33;102344.25;;;26.00;30.90
45523;BME280;31254;51.680;5.394;2022-08-07T14:52:21;102394.94;;;26.23;30.39
45523;BME280;31254;51.680;5.394;2022-08-07T14:54:57;102386.16;;;26.13;31.01
45523;BME280;31254;51.680;5.394;2022-08-07T14:57:25;102348.97;;;25.79;30.80
45523;BME280;31254;51.680;5.394;2022-08-07T15:00:14;102353.03;;;25.77;31.33
45523;BME280;31254;51.680;5.394;2022-08-07T15:03:05;102379.06;;;25.90;31.32
45523;BME280;31254;51.680;5.394;2022-08-07T15:05:46;102380.34;;;26.01;31.49
45523;BME280;31254;51.680;5.394;2022-08-07T15:08:37;102376.03;;;26.19;31.70
45523;BME280;31254;51.680;5.394;2022-08-07T15:11:29;102374.75;;;26.15;31.45
45523;BME280;31254;51.680;5.394;2022-08-07T15:14:23;102375.63;;;26.02;31.51
45523;BME280;31254;51.680;5.394;2022-08-07T15:17:10;102371.09;;;26.14;31.66
45523;BME280;31254;51.680;5.394;2022-08-07T15:19:53;102359.91;;;26.21;31.94
45523;BME280;31254;51.680;5.394;2022-08-07T15:22:48;102367.41;;;26.20;31.74
45523;BME280;31254;51.680;5.394;2022-08-07T15:25:25;102363.13;;;26.24;31.72
45523;BME280;31254;51.680;5.394;2022-08-07T15:28:04;102361.38;;;26.30;31.82
45523;BME280;31254;51.680;5.394;2022-08-07T15:30:54;102363.09;;;26.38;31.54
45523;BME280;31254;51.680;5.394;2022-08-07T15:33:31;102346.09;;;26.33;31.37
45523;BME280;31254;51.680;5.394;2022-08-07T15:36:02;102357.44;;;26.51;32.14
45523;BME280;31254;51.680;5.394;2022-08-07T15:38:34;102355.72;;;26.57;32.11
45523;BME280;31254;51.680;5.394;2022-08-07T15:41:24;102351.19;;;26.56;31.95
45523;BME280;31254;51.680;5.394;2022-08-07T15:44:16;102344.97;;;26.54;31.63
45523;BME280;31254;51.680;5.394;2022-08-07T15:46:45;102338.72;;;26.58;32.05
45523;BME280;31254;51.680;5.394;2022-08-07T15:49:35;102338.72;;;26.58;31.87
45523;BME280;31254;51.680;5.394;2022-08-07T15:52:24;102342.38;;;26.52;31.89
45523;BME280;31254;51.680;5.394;2022-08-07T15:54:58;102342.13;;;26.60;32.28
45523;BME280;31254;51.680;5.394;2022-08-07T15:57:30;102340.22;;;26.54;32.27
45523;BME280;31254;51.680;5.394;2022-08-07T16:00:16;102337.84;;;26.51;32.72